Time;durP1;ratioP1;P1;durP2;ratioP2;P2;SDS_P1;SDS_P2;PMS_P1;PMS_P2;Temp;Humidity;BMP_temperature;BMP_pressure;BME280_temperature;BME280_humidity;BME280_pressure;Samples;Min_cycle;Max_cycle;Signal;HPM_P1;HPM_P2
2023/10/04 00:00:27;;;;;;;9.32;1.00;;;13.00;99.90;;;;;;4231229;28;20404;-81
2023/10/04 00:02:30;;;;;;;6.75;1.42;;;13.00;99.90;;;;;;4229817;28;20044;-81
2023/10/04 00:04:34;;;;;;;8.15;1.30;;;13.00;99.90;;;;;;4229889;28;20050;-81
2023/10/04 00:06:34;;;;;;;10.43;1.77;;;13.00;99.90;;;;;;4231075;28;20123;-81
2023/10/04 00:08:35;;;;;;;9.27;2.13;;;13.00;99.90;;;;;;4229694;28;20381;-80
2023/10/04 00:10:36;;;;;;;6.78;1.42;;;13.00;99.90;;;;;;4231252;28;20499;-81
2023/10/04 00:12:38;;;;;;;7.70;2.00;;;12.90;99.90;;;;;;4234024;28;20040;-80
2023/10/04 00:14:38;;;;;;;11.48;1.80;;;12.90;99.90;;;;;;4236503;28;20117;-81
2023/10/04 00:16:39;;;;;;;7.82;2.40;;;12.90;99.90;;;;;;4236553;28;20048;-81
2023/10/04 00:18:40;;;;;;;14.88;1.48;;;12.90;99.90;;;;;;4235820;28;20434;-80
2023/10/04 00:20:43;;;;;;;9.48;1.80;;;12.90;99.90;;;;;;4236439;28;20407;-81
2023/10/04 00:22:46;;;;;;;9.90;1.88;;;12.90;99.90;;;;;;4236883;28;20046;-80
2023/10/04 00:24:50;;;;;;;6.43;1.20;;;12.90;99.90;;;;;;4235261;28;20479;-80
2023/10/04 00:26:50;;;;;;;5.80;1.10;;;12.90;99.90;;;;;;4236333;28;20067;-81
2023/10/04 00:28:51;;;;;;;9.93;1.63;;;13.00;99.90;;;;;;4236497;28;20059;-81
2023/10/04 00:30:52;;;;;;;13.63;2.67;;;13.00;99.90;;;;;;4236365;28;20631;-81
2023/10/04 00:32:54;;;;;;;12.13;2.38;;;13.00;99.90;;;;;;4218147;28;20541;-81
2023/10/04 00:34:54;;;;;;;8.45;2.08;;;13.00;99.90;;;;;;4236739;28;20146;-81
2023/10/04 00:36:56;;;;;;;9.70;1.85;;;13.00;99.90;;;;;;4236329;28;20051;-80
2023/10/04 00:38:57;;;;;;;7.30;1.48;;;12.80;99.90;;;;;;4236663;28;20112;-81
2023/10/04 00:40:58;;;;;;;8.68;1.55;;;12.90;99.90;;;;;;4236580;28;20047;-80
2023/10/04 00:43:06;;;;;;;10.27;2.00;;;12.90;99.90;;;;;;4218579;28;20570;-81
2023/10/04 00:45:12;;;;;;;13.27;1.80;;;13.00;99.90;;;;;;4236926;28;20512;-81
2023/10/04 00:47:14;;;;;;;10.63;1.35;;;12.90;99.90;;;;;;4236367;28;20043;-81
2023/10/04 00:49:15;;;;;;;8.52;2.40;;;12.90;99.90;;;;;;4218033;28;20046;-81
2023/10/04 00:51:22;;;;;;;10.25;1.67;;;12.90;99.90;;;;;;4235788;28;20457;-80
2023/10/04 00:53:25;;;;;;;8.93;1.35;;;12.90;99.90;;;;;;4236756;28;20448;-80
2023/10/04 00:55:27;;;;;;;10.40;1.85;;;12.90;99.90;;;;;;4236777;28;20551;-81
2023/10/04 00:57:28;;;;;;;11.90;1.65;;;12.90;99.90;;;;;;4236694;28;20065;-80
2023/10/04 00:59:31;;;;;;;13.52;1.50;;;12.90;99.90;;;;;;4236312;28;20089;-80
2023/10/04 01:01:32;;;;;;;10.95;1.63;;;12.90;99.90;;;;;;4236560;28;20057;-81
2023/10/04 01:03:36;;;;;;;9.32;1.30;;;12.80;99.90;;;;;;4218634;28;20040;-81
2023/10/04 01:05:39;;;;;;;14.23;2.45;;;12.80;99.90;;;;;;4236177;28;20142;-81
2023/10/04 01:07:40;;;;;;;5.82;1.30;;;12.80;99.90;;;;;;4236366;28;20396;-81
2023/10/04 01:09:42;;;;;;;7.13;1.27;;;12.80;99.90;;;;;;4236331;28;20044;-81
2023/10/04 01:11:46;;;;;;;12.05;2.00;;;12.80;99.90;;;;;;4235410;28;20047;-81
2023/10/04 01:13:47;;;;;;;8.00;1.63;;;12.80;99.90;;;;;;4218724;28;20488;-81
2023/10/04 01:15:55;;;;;;;13.93;1.75;;;12.80;99.90;;;;;;4236142;28;20050;-81
2023/10/04 01:17:58;;;;;;;12.07;1.83;;;12.80;99.90;;;;;;4236310;28;20484;-81
2023/10/04 01:19:58;;;;;;;8.38;2.17;;;12.80;99.90;;;;;;4236014;28;20441;-81
2023/10/04 01:22:04;;;;;;;9.40;1.25;;;12.80;99.90;;;;;;4235978;28;20052;-81
2023/10/04 01:24:09;;;;;;;10.98;2.28;;;12.80;99.90;;;;;;4233273;28;20126;-81
2023/10/04 01:26:10;;;;;;;10.20;1.55;;;12.80;99.90;;;;;;4233505;28;20956;-81
2023/10/04 01:28:30;;;;;;;6.90;1.58;;;12.80;99.90;;;;;;4232951;28;20051;-81
2023/10/04 01:30:31;;;;;;;13.13;1.95;;;12.80;99.90;;;;;;4232102;28;20176;-81
2023/10/04 01:32:32;;;;;;;12.07;1.83;;;12.80;99.90;;;;;;4231483;28;20048;-81
2023/10/04 01:34:33;;;;;;;10.80;2.00;;;12.80;99.90;;;;;;4233458;28;20067;-81
2023/10/04 01:36:36;;;;;;;6.20;1.30;;;12.70;99.90;;;;;;4232899;28;20441;-81
2023/10/04 01:38:37;;;;;;;11.40;1.77;;;12.70;99.90;;;;;;4233327;28;20036;-81
2023/10/04 01:40:39;;;;;;;9.43;2.10;;;12.60;99.90;;;;;;4214989;28;20051;-81
2023/10/04 01:42:40;;;;;;;12.63;2.97;;;12.60;99.90;;;;;;4233325;28;20039;-81
2023/10/04 01:44:40;;;;;;;10.32;1.50;;;12.60;99.90;;;;;;4233265;28;20044;-81
2023/10/04 01:46:42;;;;;;;6.43;1.48;;;12.60;99.90;;;;;;4232942;28;20035;-81
2023/10/04 01:48:44;;;;;;;11.43;1.38;;;12.50;99.90;;;;;;4233218;28;20161;-81
2023/10/04 01:50:48;;;;;;;9.25;1.92;;;12.50;99.90;;;;;;4232823;28;20056;-81
2023/10/04 01:52:50;;;;;;;16.95;2.42;;;12.50;99.90;;;;;;4232935;28;20086;-81
2023/10/04 01:54:51;;;;;;;12.68;2.10;;;12.50;99.90;;;;;;4233184;28;20440;-81
2023/10/04 01:56:51;;;;;;;10.18;2.38;;;12.50;99.90;;;;;;4232802;28;20036;-81
2023/10/04 01:58:54;;;;;;;12.93;1.90;;;12.50;99.90;;;;;;4232750;28;20522;-81
2023/10/04 02:01:00;;;;;;;15.95;2.20;;;12.50;99.90;;;;;;4232622;28;20071;-81
2023/10/04 02:03:02;;;;;;;11.80;1.58;;;12.50;99.90;;;;;;4232726;28;20051;-81
2023/10/04 02:05:05;;;;;;;10.23;2.40;;;12.70;99.90;;;;;;4232842;28;20035;-81
2023/10/04 02:07:06;;;;;;;7.68;1.60;;;12.90;99.90;;;;;;4231543;28;20056;-81
2023/10/04 02:09:11;;;;;;;10.65;1.80;;;12.60;99.90;;;;;;4232431;28;20493;-80
2023/10/04 02:11:12;;;;;;;7.90;1.40;;;12.60;99.90;;;;;;4232872;28;20123;-81
2023/10/04 02:13:15;;;;;;;10.32;1.70;;;12.60;99.90;;;;;;4232556;28;20040;-80
2023/10/04 02:15:17;;;;;;;7.88;1.35;;;12.70;99.90;;;;;;4232816;28;20488;-80
2023/10/04 02:17:18;;;;;;;7.53;2.47;;;12.70;99.90;;;;;;4232530;28;20044;-80
2023/10/04 02:19:22;;;;;;;9.32;1.58;;;12.60;99.90;;;;;;4232388;28;20040;-80
2023/10/04 02:21:24;;;;;;;7.13;1.85;;;12.60;99.90;;;;;;4232342;28;20085;-80
2023/10/04 02:23:24;;;;;;;14.75;2.17;;;12.60;99.90;;;;;;4215041;28;20083;-80
2023/10/04 02:25:26;;;;;;;14.27;2.10;;;12.50;99.90;;;;;;4232606;28;20043;-80
2023/10/04 02:27:27;;;;;;;5.55;1.30;;;12.50;99.90;;;;;;4232614;28;20040;-81
2023/10/04 02:29:28;;;;;;;9.77;1.83;;;12.50;99.90;;;;;;4213884;28;20052;-81
2023/10/04 02:31:29;;;;;;;8.18;1.35;;;12.40;99.90;;;;;;4214399;28;20424;-80
2023/10/04 02:33:34;;;;;;;10.98;2.92;;;12.40;99.90;;;;;;4232285;28;20093;-80
2023/10/04 02:35:43;;;;;;;21.05;2.25;;;12.40;99.90;;;;;;4230382;28;20051;-81
2023/10/04 02:37:44;;;;;;;9.52;1.73;;;12.40;99.90;;;;;;4232491;28;20036;-80
2023/10/04 02:39:46;;;;;;;12.95;1.70;;;12.40;99.90;;;;;;4232097;28;20079;-81
2023/10/04 02:41:47;;;;;;;20.50;2.28;;;12.40;99.90;;;;;;4232436;28;20384;-81
2023/10/04 02:43:48;;;;;;;10.65;2.25;;;12.20;99.90;;;;;;4232397;28;20039;-80
2023/10/04 02:45:52;;;;;;;16.40;1.98;;;12.40;99.90;;;;;;4247801;28;20051;-81
2023/10/04 02:47:53;;;;;;;15.45;1.77;;;12.40;99.90;;;;;;4251407;28;20055;-80
2023/10/04 02:49:54;;;;;;;10.25;1.63;;;12.40;99.90;;;;;;4232141;28;20131;-81
2023/10/04 02:51:55;;;;;;;8.35;1.33;;;12.40;99.90;;;;;;4231829;28;20023;-80
2023/10/04 02:53:55;;;;;;;11.32;1.77;;;12.40;99.90;;;;;;4213378;28;20048;-81
2023/10/04 02:55:58;;;;;;;11.45;2.65;;;12.20;99.90;;;;;;4232110;28;20400;-81
2023/10/04 02:57:59;;;;;;;8.05;2.38;;;12.40;99.90;;;;;;4232140;28;20479;-81
2023/10/04 03:00:11;;;;;;;8.48;1.88;;;12.40;99.90;;;;;;4232040;28;20074;-81
2023/10/04 03:02:12;;;;;;;15.52;2.15;;;12.40;99.90;;;;;;4231693;28;20089;-81
2023/10/04 03:04:15;;;;;;;11.35;1.63;;;12.40;99.90;;;;;;4232072;28;20040;-81
2023/10/04 03:06:16;;;;;;;8.32;1.77;;;12.50;99.90;;;;;;4231902;28;20043;-81
2023/10/04 03:08:17;;;;;;;8.10;1.92;;;12.50;99.90;;;;;;4232031;28;20043;-81
2023/10/04 03:10:25;;;;;;;14.10;2.35;;;12.50;99.90;;;;;;4231439;28;20036;-81
2023/10/04 03:12:26;;;;;;;6.68;0.88;;;12.50;99.90;;;;;;4231577;28;20043;-81
2023/10/04 03:14:27;;;;;;;10.25;1.60;;;12.60;99.90;;;;;;4213936;28;20070;-81
2023/10/04 03:16:28;;;;;;;8.35;1.40;;;12.60;99.90;;;;;;4231785;28;20039;-80
2023/10/04 03:18:29;;;;;;;9.25;1.73;;;12.50;99.90;;;;;;4232056;28;20035;-81
2023/10/04 03:20:30;;;;;;;4.93;1.30;;;12.60;99.90;;;;;;4213758;28;20043;-80
2023/10/04 03:22:31;;;;;;;11.20;1.80;;;12.50;99.90;;;;;;4231714;28;20047;-80
2023/10/04 03:24:32;;;;;;;10.25;1.77;;;12.60;99.90;;;;;;4213537;28;20036;-80
2023/10/04 03:26:33;;;;;;;10.80;1.50;;;12.50;99.90;;;;;;4230715;28;20108;-81
2023/10/04 03:28:37;;;;;;;8.88;1.45;;;12.60;99.90;;;;;;4231399;28;20047;-80
2023/10/04 03:30:39;;;;;;;11.00;1.73;;;12.50;99.90;;;;;;4231602;28;20043;-80
2023/10/04 03:32:45;;;;;;;7.95;2.17;;;12.50;99.90;;;;;;4231006;28;20036;-80
2023/10/04 03:34:46;;;;;;;10.85;2.13;;;12.60;99.90;;;;;;4231581;28;20100;-80
2023/10/04 03:36:46;;;;;;;10.05;2.50;;;12.50;99.90;;;;;;4231383;28;20036;-80
2023/10/04 03:38:49;;;;;;;12.63;1.40;;;12.50;99.90;;;;;;4231494;28;20415;-80
2023/10/04 03:40:51;;;;;;;12.35;2.03;;;12.90;99.90;;;;;;4230862;28;20050;-80
2023/10/04 03:42:52;;;;;;;7.78;1.98;;;12.50;99.90;;;;;;4232261;28;20043;-80
2023/10/04 03:44:54;;;;;;;9.80;2.08;;;12.50;99.90;;;;;;4231534;28;20466;-80
2023/10/04 03:46:55;;;;;;;8.95;1.60;;;12.60;99.90;;;;;;4230682;28;20039;-80
2023/10/04 03:48:58;;;;;;;7.95;1.80;;;12.40;99.90;;;;;;4231132;28;20042;-80
2023/10/04 03:50:59;;;;;;;12.98;2.88;;;12.50;99.90;;;;;;4231573;28;20130;-80
2023/10/04 03:52:59;;;;;;;9.30;1.55;;;12.60;99.90;;;;;;4231427;28;20391;-80
2023/10/04 03:55:00;;;;;;;11.25;2.60;;;12.50;99.90;;;;;;4231761;28;20082;-80
2023/10/04 03:57:06;;;;;;;4.68;1.75;;;12.60;99.90;;;;;;4232573;28;20035;-80
2023/10/04 03:59:08;;;;;;;8.98;1.75;;;12.50;99.90;;;;;;4217375;28;20048;-80
2023/10/04 04:01:10;;;;;;;14.02;2.00;;;12.50;99.90;;;;;;4244173;28;20051;-79
2023/10/04 04:03:12;;;;;;;11.45;3.42;;;12.50;99.90;;;;;;4247108;28;20071;-79
2023/10/04 04:05:14;;;;;;;10.48;1.35;;;12.40;99.90;;;;;;4241532;28;20047;-80
2023/10/04 04:07:15;;;;;;;12.15;1.92;;;12.40;99.90;;;;;;4230011;28;20058;-80
2023/10/04 04:09:15;;;;;;;12.82;2.60;;;12.40;99.90;;;;;;4231410;28;20118;-80
2023/10/04 04:11:17;;;;;;;9.20;1.40;;;12.40;99.90;;;;;;4231166;28;20044;-80
2023/10/04 04:13:18;;;;;;;9.93;2.20;;;12.40;99.90;;;;;;4230425;28;20047;-80
2023/10/04 04:15:19;;;;;;;10.27;2.35;;;12.40;99.90;;;;;;4213167;28;20091;-79
2023/10/04 04:17:22;;;;;;;7.72;1.83;;;12.40;99.90;;;;;;4230887;28;20036;-79
2023/10/04 04:19:23;;;;;;;11.23;2.60;;;12.40;99.90;;;;;;4231067;28;20053;-79
2023/10/04 04:21:25;;;;;;;14.63;2.70;;;12.40;99.90;;;;;;4212942;28;20040;-79
2023/10/04 04:23:25;;;;;;;4.85;1.23;;;12.40;99.90;;;;;;4230321;28;20167;-79
2023/10/04 04:25:28;;;;;;;11.43;2.05;;;12.40;99.90;;;;;;4230982;28;20150;-79
2023/10/04 04:27:30;;;;;;;13.18;2.00;;;12.40;99.90;;;;;;4230585;28;20119;-81
2023/10/04 04:29:31;;;;;;;13.02;2.30;;;12.50;99.90;;;;;;4230891;28;20098;-79
2023/10/04 04:31:32;;;;;;;7.22;1.77;;;12.50;99.90;;;;;;4230658;28;20054;-79
2023/10/04 04:33:34;;;;;;;9.95;1.75;;;12.50;99.90;;;;;;4230598;28;20400;-79
2023/10/04 04:35:47;;;;;;;14.18;1.88;;;12.50;99.90;;;;;;4230650;28;20047;-79
2023/10/04 04:37:54;;;;;;;12.40;2.17;;;12.50;99.90;;;;;;4230369;28;20069;-79
2023/10/04 04:39:56;;;;;;;10.43;2.17;;;12.50;99.90;;;;;;4212224;28;20044;-78
2023/10/04 04:41:57;;;;;;;10.60;2.13;;;12.40;99.90;;;;;;4230421;28;20047;-77
2023/10/04 04:44:06;;;;;;;9.43;1.48;;;12.50;99.90;;;;;;4229982;28;20028;-76
2023/10/04 04:46:18;;;;;;;12.10;2.33;;;12.50;99.90;;;;;;4230521;28;20054;-77
2023/10/04 04:48:27;;;;;;;11.95;2.05;;;12.50;99.90;;;;;;4230744;28;20058;-77
2023/10/04 04:50:27;;;;;;;6.57;2.55;;;12.50;99.90;;;;;;4229747;28;20499;-77
2023/10/04 04:52:30;;;;;;;8.75;1.58;;;12.50;99.90;;;;;;4230482;28;20043;-77
2023/10/04 04:54:31;;;;;;;14.90;2.63;;;12.50;99.90;;;;;;4230447;28;20122;-77
2023/10/04 04:56:32;;;;;;;6.32;1.50;;;12.50;99.90;;;;;;4229960;28;20046;-76
2023/10/04 04:58:33;;;;;;;9.30;2.00;;;12.50;99.90;;;;;;4230607;28;20046;-76
2023/10/04 05:00:33;;;;;;;6.93;1.25;;;12.50;99.90;;;;;;4231964;28;20055;-77
2023/10/04 05:02:34;;;;;;;10.80;2.10;;;12.40;99.90;;;;;;4233686;28;20054;-78
2023/10/04 05:04:36;;;;;;;6.18;1.63;;;12.40;99.90;;;;;;4214747;28;20044;-78
2023/10/04 05:06:38;;;;;;;13.10;2.15;;;12.30;99.90;;;;;;4233732;28;20044;-78
2023/10/04 05:08:40;;;;;;;8.55;1.55;;;12.40;99.90;;;;;;4233765;28;20097;-78
2023/10/04 05:10:43;;;;;;;10.35;1.95;;;12.40;99.90;;;;;;4215794;28;20131;-78
2023/10/04 05:12:46;;;;;;;12.25;1.73;;;12.30;99.90;;;;;;4233288;28;20043;-79
2023/10/04 05:14:47;;;;;;;11.35;1.67;;;12.30;99.90;;;;;;4233794;28;20042;-78
2023/10/04 05:16:49;;;;;;;10.48;2.17;;;12.30;99.90;;;;;;4233392;28;20040;-78
2023/10/04 05:18:50;;;;;;;6.88;1.80;;;12.30;99.90;;;;;;4215375;28;20561;-78
2023/10/04 05:20:54;;;;;;;9.45;2.33;;;12.30;99.90;;;;;;4233117;28;20043;-78
2023/10/04 05:22:54;;;;;;;10.68;2.25;;;12.30;99.90;;;;;;4233145;28;20039;-78
2023/10/04 05:24:55;;;;;;;9.48;2.08;;;12.30;99.90;;;;;;4215208;28;20050;-78
2023/10/04 05:26:57;;;;;;;16.83;2.10;;;12.20;99.90;;;;;;4215177;28;20104;-78
2023/10/04 05:29:00;;;;;;;4.30;1.63;;;12.20;99.90;;;;;;4233436;28;20149;-78
2023/10/04 05:31:01;;;;;;;11.80;1.50;;;12.20;99.90;;;;;;4198595;28;20064;-78
2023/10/04 05:33:01;;;;;;;12.95;2.53;;;12.20;99.90;;;;;;4197901;28;20420;-78
2023/10/04 05:35:02;;;;;;;14.55;2.20;;;12.20;99.90;;;;;;4233033;28;20051;-78
2023/10/04 05:37:03;;;;;;;6.82;1.77;;;12.20;99.90;;;;;;4233099;28;20054;-78
2023/10/04 05:39:04;;;;;;;20.73;3.00;;;12.20;99.90;;;;;;4231833;28;20060;-78
2023/10/04 05:41:05;;;;;;;13.85;3.70;;;12.20;99.90;;;;;;4198132;28;20151;-78
2023/10/04 05:43:06;;;;;;;12.60;1.98;;;12.30;99.90;;;;;;4232883;28;20059;-78
2023/10/04 05:45:08;;;;;;;9.48;1.88;;;12.30;99.90;;;;;;4233094;28;20051;-78
2023/10/04 05:47:09;;;;;;;15.18;2.70;;;12.30;99.90;;;;;;4232555;28;20043;-78
2023/10/04 05:49:09;;;;;;;11.52;1.85;;;12.30;99.90;;;;;;4232830;28;20078;-78
2023/10/04 05:51:10;;;;;;;12.98;2.67;;;12.40;99.90;;;;;;4214579;28;20078;-78
2023/10/04 05:53:14;;;;;;;8.55;2.17;;;12.40;99.90;;;;;;4232580;28;20031;-78
2023/10/04 05:55:18;;;;;;;8.50;1.60;;;12.30;99.90;;;;;;4232910;28;20044;-78
2023/10/04 05:57:19;;;;;;;11.05;2.15;;;12.40;99.90;;;;;;4232710;28;20115;-78
2023/10/04 05:59:20;;;;;;;8.43;2.03;;;12.30;99.90;;;;;;4214176;28;20554;-78
2023/10/04 06:01:22;;;;;;;8.55;1.98;;;12.40;99.90;;;;;;4232808;28;20505;-78
2023/10/04 06:03:23;;;;;;;10.40;2.20;;;12.40;99.90;;;;;;4214517;28;20083;-78
2023/10/04 06:05:27;;;;;;;18.42;2.42;;;12.30;99.90;;;;;;4214627;28;20593;-78
2023/10/04 06:07:29;;;;;;;9.93;1.98;;;12.30;99.90;;;;;;4232615;28;20031;-78
2023/10/04 06:09:32;;;;;;;10.80;2.45;;;12.30;99.90;;;;;;4215152;28;20044;-78
2023/10/04 06:11:33;;;;;;;14.40;2.80;;;12.30;99.90;;;;;;4214193;28;20105;-78
2023/10/04 06:13:36;;;;;;;13.02;2.10;;;12.30;99.90;;;;;;4215846;28;20052;-78
2023/10/04 06:15:42;;;;;;;7.47;1.60;;;12.30;99.90;;;;;;4215799;28;20048;-78
2023/10/04 06:17:43;;;;;;;8.77;2.38;;;12.30;99.90;;;;;;4197438;28;20093;-79
2023/10/04 06:19:44;;;;;;;8.02;1.70;;;12.30;99.90;;;;;;4215043;28;20055;-79
2023/10/04 06:21:49;;;;;;;9.73;2.60;;;12.30;99.90;;;;;;4215699;28;20408;-80
2023/10/04 06:23:50;;;;;;;10.98;2.03;;;12.30;99.90;;;;;;4225866;28;20035;-81
2023/10/04 06:25:51;;;;;;;12.27;1.75;;;12.30;99.90;;;;;;4231863;28;20104;-80
2023/10/04 06:27:54;;;;;;;13.45;2.83;;;12.40;99.90;;;;;;4232231;28;20411;-81
2023/10/04 06:29:54;;;;;;;14.00;2.17;;;12.30;99.90;;;;;;4232477;27;20128;-80
2023/10/04 06:31:56;;;;;;;8.02;1.73;;;12.40;99.90;;;;;;4231718;28;20105;-80
2023/10/04 06:33:58;;;;;;;8.93;1.77;;;12.50;99.90;;;;;;4227505;28;20036;-80
2023/10/04 06:35:59;;;;;;;11.25;2.30;;;12.40;99.90;;;;;;4229954;28;20104;-80
2023/10/04 06:38:03;;;;;;;12.80;2.65;;;12.40;99.90;;;;;;4183140;28;20060;-81
2023/10/04 06:40:14;;;;;;;8.70;2.17;;;12.50;99.90;;;;;;4232025;28;20081;-80
2023/10/04 06:42:14;;;;;;;6.53;1.90;;;12.50;99.90;;;;;;4232413;28;20720;-80
2023/10/04 06:44:15;;;;;;;13.45;3.22;;;12.50;99.90;;;;;;4213731;28;20044;-80
2023/10/04 06:46:16;;;;;;;8.68;2.25;;;12.60;99.90;;;;;;4215280;28;20071;-80
2023/10/04 06:48:17;;;;;;;12.95;2.80;;;12.60;99.90;;;;;;4215435;28;20040;-79
2023/10/04 06:50:22;;;;;;;10.55;2.25;;;12.60;99.90;;;;;;4197026;28;20563;-80
2023/10/04 06:52:23;;;;;;;12.80;2.03;;;12.70;99.90;;;;;;4214115;28;20079;-81
2023/10/04 06:54:24;;;;;;;12.65;1.88;;;12.80;99.90;;;;;;4231013;28;20043;-81
2023/10/04 06:56:25;;;;;;;15.15;2.58;;;12.40;99.90;;;;;;4232180;28;20067;-81
2023/10/04 06:58:27;;;;;;;11.75;2.70;;;12.80;99.90;;;;;;4214048;28;20047;-81
2023/10/04 07:00:36;;;;;;;17.00;2.40;;;12.80;99.90;;;;;;4213954;28;20047;-81
2023/10/04 07:02:37;;;;;;;9.77;2.22;;;12.90;99.90;;;;;;4213927;28;20040;-81
2023/10/04 07:04:38;;;;;;;10.80;2.80;;;12.90;99.90;;;;;;4231677;28;20046;-81
2023/10/04 07:06:39;;;;;;;13.50;2.13;;;13.00;99.90;;;;;;4231790;28;20071;-81
2023/10/04 07:08:40;;;;;;;12.55;2.80;;;13.00;99.90;;;;;;4231871;28;20097;-81
2023/10/04 07:10:41;;;;;;;14.50;3.13;;;13.00;99.90;;;;;;4231748;28;20047;-81
2023/10/04 07:12:45;;;;;;;8.48;1.90;;;13.10;99.90;;;;;;4213470;28;20051;-80
2023/10/04 07:14:46;;;;;;;13.38;2.60;;;13.10;99.90;;;;;;4231112;28;20040;-80
2023/10/04 07:16:47;;;;;;;26.73;2.67;;;13.10;99.90;;;;;;4231871;27;20464;-80
2023/10/04 07:18:47;;;;;;;9.40;2.60;;;13.10;99.90;;;;;;4231477;28;20123;-80
2023/10/04 07:20:48;;;;;;;10.60;3.63;;;13.20;99.90;;;;;;4231660;28;20536;-81
2023/10/04 07:22:51;;;;;;;6.43;2.08;;;13.30;99.90;;;;;;4212613;28;20080;-80
2023/10/04 07:24:51;;;;;;;6.45;2.40;;;13.30;99.90;;;;;;4231504;28;20100;-80
2023/10/04 07:26:55;;;;;;;15.00;2.20;;;13.40;99.90;;;;;;4230116;28;20043;-80
2023/10/04 07:28:58;;;;;;;8.52;2.10;;;13.40;99.90;;;;;;4230888;28;20121;-81
2023/10/04 07:31:00;;;;;;;13.00;2.45;;;13.50;99.90;;;;;;4231474;28;20381;-80
2023/10/04 07:33:01;;;;;;;11.70;2.50;;;13.60;99.90;;;;;;4230844;28;20039;-81
2023/10/04 07:35:02;;;;;;;6.93;1.90;;;13.70;99.90;;;;;;4231215;28;20046;-80
2023/10/04 07:37:03;;;;;;;8.07;2.25;;;13.70;99.90;;;;;;4231469;28;20040;-80
2023/10/04 07:39:04;;;;;;;13.85;2.60;;;13.70;99.90;;;;;;4231086;28;20511;-80
2023/10/04 07:41:05;;;;;;;8.18;2.10;;;13.90;99.90;;;;;;4232356;28;20046;-82
2023/10/04 07:43:07;;;;;;;12.13;2.67;;;14.20;99.90;;;;;;4229786;28;20044;-81
2023/10/04 07:45:09;;;;;;;10.45;1.95;;;14.70;99.90;;;;;;4231230;28;20031;-82
2023/10/04 07:47:11;;;;;;;8.93;2.45;;;15.20;99.90;;;;;;4231108;28;20048;-83
2023/10/04 07:49:11;;;;;;;12.68;4.75;;;15.60;99.90;;;;;;4230928;28;20049;-82
2023/10/04 07:51:12;;;;;;;16.50;3.33;;;15.90;99.90;;;;;;4222333;28;20043;-82
2023/10/04 07:53:13;;;;;;;12.95;2.20;;;16.10;99.90;;;;;;4213019;28;20043;-82
2023/10/04 07:55:20;;;;;;;8.20;1.90;;;16.40;99.90;;;;;;4231140;28;20096;-82
2023/10/04 07:57:21;;;;;;;8.10;2.75;;;16.70;99.90;;;;;;4230782;28;20048;-81
2023/10/04 07:59:22;;;;;;;12.07;2.42;;;17.00;99.90;;;;;;4229630;28;20058;-80
2023/10/04 08:01:23;;;;;;;7.25;2.30;;;17.20;99.90;;;;;;4230682;28;20067;-81
2023/10/04 08:03:26;;;;;;;12.85;2.17;;;17.40;99.90;;;;;;4196025;28;20044;-81
2023/10/04 08:05:29;;;;;;;10.77;2.33;;;17.50;99.90;;;;;;4212709;28;20076;-81
2023/10/04 08:07:30;;;;;;;9.57;2.30;;;17.60;99.90;;;;;;4229778;28;20135;-82
2023/10/04 08:09:31;;;;;;;10.90;2.20;;;17.90;99.90;;;;;;4230332;28;20047;-82
2023/10/04 08:11:35;;;;;;;9.90;2.00;;;17.90;99.90;;;;;;4231059;28;20079;-82
2023/10/04 08:13:35;;;;;;;14.15;3.15;;;18.00;99.90;;;;;;4230963;28;20071;-81
2023/10/04 08:15:36;;;;;;;7.90;3.25;;;18.00;99.90;;;;;;4233028;28;20050;-81
2023/10/04 08:17:37;;;;;;;12.52;3.35;;;18.10;99.90;;;;;;4238673;28;20503;-82
2023/10/04 08:19:38;;;;;;;11.43;2.28;;;18.00;99.90;;;;;;4212898;28;20080;-81
2023/10/04 08:21:38;;;;;;;7.32;2.20;;;18.10;99.90;;;;;;4230860;28;20047;-81
2023/10/04 08:23:39;;;;;;;13.20;2.20;;;18.10;99.90;;;;;;4230951;28;20050;-82
2023/10/04 08:25:40;;;;;;;11.10;2.63;;;18.10;99.90;;;;;;4230693;28;20086;-81
2023/10/04 08:27:40;;;;;;;9.80;2.92;;;18.10;99.90;;;;;;4230560;28;20043;-82
2023/10/04 08:29:43;;;;;;;12.85;2.83;;;17.80;99.90;;;;;;4230687;28;20031;-81
2023/10/04 08:31:44;;;;;;;11.90;2.78;;;17.60;99.90;;;;;;4230497;28;20089;-82
2023/10/04 08:33:45;;;;;;;8.65;2.38;;;17.40;99.90;;;;;;4214481;28;20583;-81
2023/10/04 08:35:46;;;;;;;10.82;3.08;;;17.30;99.90;;;;;;4234228;28;20043;-81
2023/10/04 08:37:48;;;;;;;10.85;2.45;;;17.50;99.90;;;;;;4216193;28;20052;-81
2023/10/04 08:39:49;;;;;;;12.40;2.30;;;17.70;99.90;;;;;;4215666;28;20506;-81
2023/10/04 08:41:50;;;;;;;8.70;2.30;;;18.20;99.90;;;;;;4234226;28;20044;-81
2023/10/04 08:43:51;;;;;;;12.02;2.70;;;18.60;99.90;;;;;;4234104;28;20082;-81
2023/10/04 08:45:53;;;;;;;13.68;2.28;;;19.30;99.90;;;;;;4233762;28;20403;-81
2023/10/04 08:47:57;;;;;;;11.63;2.38;;;19.70;99.90;;;;;;4233726;28;20043;-80
2023/10/04 08:50:02;;;;;;;8.88;2.28;;;19.90;99.90;;;;;;4233663;28;20096;-81
2023/10/04 08:52:13;;;;;;;12.18;3.25;;;20.40;99.90;;;;;;4233713;28;20093;-82
2023/10/04 08:54:18;;;;;;;11.95;2.85;;;20.60;99.90;;;;;;4233743;28;20043;-82
2023/10/04 08:56:23;;;;;;;8.77;2.33;;;20.70;99.90;;;;;;4233952;28;20043;-82
2023/10/04 08:58:25;;;;;;;8.35;2.50;;;20.70;99.90;;;;;;4234000;28;20564;-82
2023/10/04 09:00:29;;;;;;;8.90;2.15;;;20.40;99.90;;;;;;4233843;28;20048;-81
2023/10/04 09:02:31;;;;;;;8.82;2.53;;;20.30;99.90;;;;;;4232119;28;20504;-82
2023/10/04 09:04:33;;;;;;;11.98;3.15;;;20.30;99.90;;;;;;4234049;28;20036;-81
2023/10/04 09:06:34;;;;;;;10.23;2.70;;;20.60;99.90;;;;;;4233819;28;20039;-81
2023/10/04 09:08:37;;;;;;;7.90;2.05;;;20.70;99.90;;;;;;4232829;28;20047;-82
2023/10/04 09:10:39;;;;;;;12.48;2.38;;;20.80;99.90;;;;;;4233610;28;20488;-83
2023/10/04 09:12:40;;;;;;;13.48;2.38;;;20.80;99.90;;;;;;4215698;28;20419;-82
2023/10/04 09:14:41;;;;;;;12.60;2.20;;;20.50;99.90;;;;;;4215014;28;20048;-82
2023/10/04 09:16:42;;;;;;;9.68;4.25;;;20.30;99.90;;;;;;4233571;28;20502;-82
2023/10/04 09:18:43;;;;;;;11.20;2.63;;;20.10;99.90;;;;;;4215637;28;20539;-82
2023/10/04 09:20:43;;;;;;;12.23;2.47;;;20.30;99.90;;;;;;4233689;28;20044;-82
2023/10/04 09:22:44;;;;;;;10.68;2.33;;;20.40;99.90;;;;;;4233541;28;20101;-82
2023/10/04 09:24:56;;;;;;;7.30;2.53;;;20.50;99.90;;;;;;4231971;28;20483;-83
2023/10/04 09:26:57;;;;;;;10.80;2.25;;;20.80;99.90;;;;;;4232620;28;20044;-82
2023/10/04 09:28:58;;;;;;;16.05;3.40;;;20.90;99.90;;;;;;4233586;28;20542;-83
2023/10/04 09:31:12;;;;;;;11.43;2.95;;;20.70;99.90;;;;;;4220680;28;20044;-83
2023/10/04 09:33:26;;;;;;;8.77;2.70;;;20.50;99.90;;;;;;4216589;28;20052;-82
2023/10/04 09:35:44;;;;;;;9.02;2.35;;;20.00;99.90;;;;;;4216225;28;20040;-83
2023/10/04 09:37:49;;;;;;;8.65;2.08;;;19.80;99.90;;;;;;4216565;28;20492;-82
2023/10/04 09:40:06;;;;;;;11.10;2.75;;;19.60;99.90;;;;;;4216503;28;20052;-83
2023/10/04 09:42:14;;;;;;;9.25;2.42;;;19.40;99.90;;;;;;4198217;28;20083;-83
2023/10/04 09:44:25;;;;;;;8.90;3.10;;;19.60;99.90;;;;;;4216045;28;20108;-83
2023/10/04 09:46:26;;;;;;;8.73;2.30;;;19.60;99.90;;;;;;4215921;28;20373;-82
2023/10/04 09:48:36;;;;;;;10.18;2.95;;;19.40;99.90;;;;;;4233867;27;20054;-82
2023/10/04 09:50:37;;;;;;;10.32;2.33;;;19.20;99.90;;;;;;4249383;27;20057;-82
2023/10/04 09:52:38;;;;;;;10.43;2.42;;;18.80;99.90;;;;;;4250307;27;20475;-83
2023/10/04 09:54:39;;;;;;;11.48;2.53;;;18.50;99.90;;;;;;4237511;27;20038;-83
2023/10/04 09:56:46;;;;;;;8.20;2.55;;;18.30;99.90;;;;;;4232995;28;20047;-82
2023/10/04 09:58:51;;;;;;;7.78;2.17;;;18.50;99.90;;;;;;4232662;28;20047;-83
2023/10/04 10:00:55;;;;;;;9.48;2.30;;;18.50;99.90;;;;;;4232609;28;20044;-83
2023/10/04 10:03:00;;;;;;;11.15;2.63;;;18.60;99.90;;;;;;4214994;28;20454;-82
2023/10/04 10:05:05;;;;;;;12.40;2.58;;;18.70;99.90;;;;;;4232936;28;20114;-83
2023/10/04 10:07:20;;;;;;;9.35;2.13;;;18.70;99.90;;;;;;4232803;28;20381;-83
2023/10/04 10:09:23;;;;;;;10.93;2.70;;;18.60;99.90;;;;;;4232201;28;20047;-83
2023/10/04 10:11:25;;;;;;;8.45;2.03;;;18.40;99.90;;;;;;4232945;28;20040;-83
2023/10/04 10:13:27;;;;;;;14.52;2.78;;;18.60;99.90;;;;;;4232769;28;20546;-83
2023/10/04 10:15:27;;;;;;;7.43;2.38;;;18.70;99.90;;;;;;4232906;28;20093;-82
2023/10/04 10:17:30;;;;;;;8.07;2.30;;;19.00;99.90;;;;;;4232567;28;20040;-84
2023/10/04 10:19:31;;;;;;;7.22;2.40;;;19.10;99.90;;;;;;4214225;28;20051;-82
2023/10/04 10:22:11;;;;;;;12.32;3.72;;;19.00;99.90;;;;;;4232303;28;20043;-83
2023/10/04 10:24:15;;;;;;;10.77;2.97;;;19.10;99.90;;;;;;4232561;28;20083;-83
2023/10/04 10:26:18;;;;;;;8.85;2.70;;;19.00;99.90;;;;;;4232475;28;20491;-83
2023/10/04 10:28:23;;;;;;;9.93;3.05;;;18.80;99.90;;;;;;4231454;28;20127;-83
2023/10/04 10:30:25;;;;;;;11.32;2.95;;;18.60;99.90;;;;;;4213366;28;20134;-83
2023/10/04 10:32:26;;;;;;;11.20;2.50;;;18.50;99.90;;;;;;4232310;28;20039;-83